createdAt,value
2022-09-12T00:01:17.034Z,15.18
2022-09-12T00:03:44.228Z,13.63
2022-09-12T00:06:23.639Z,14.35
2022-09-12T00:08:54.589Z,13.48
2022-09-12T00:11:22.386Z,13.73
2022-09-12T00:13:50.445Z,14.38
2022-09-12T00:16:22.885Z,14.23
2022-09-12T00:18:51.358Z,14.73
2022-09-12T00:21:19.412Z,12.85
2022-09-12T00:23:47.472Z,14.25
2022-09-12T00:26:18.548Z,15.38
2022-09-12T00:28:46.913Z,13.95
2022-09-12T00:31:24.001Z,14.15
2022-09-12T00:33:52.608Z,13.73
2022-09-12T00:36:24.334Z,12.38
2022-09-12T00:38:52.337Z,13.10
2022-09-12T00:41:31.488Z,13.00
2022-09-12T00:44:21.207Z,14.68
2022-09-12T00:46:56.815Z,12.85
2022-09-12T00:49:40.574Z,12.75
2022-09-12T00:52:34.751Z,13.50
2022-09-12T00:55:12.971Z,13.53
2022-09-12T00:57:49.781Z,13.25
2022-09-12T01:00:24.417Z,14.80
2022-09-12T01:03:07.836Z,14.55
2022-09-12T01:05:40.640Z,15.23
2022-09-12T01:08:07.958Z,14.88
2022-09-12T01:10:38.413Z,14.63
2022-09-12T01:13:09.567Z,14.43
2022-09-12T01:15:40.883Z,13.27
2022-09-12T01:18:27.512Z,13.75
2022-09-12T01:21:21.500Z,12.93
2022-09-12T01:24:46.961Z,13.45
2022-09-12T01:27:29.254Z,13.98
2022-09-12T01:30:05.272Z,15.55
2022-09-12T01:33:07.660Z,16.13
2022-09-12T01:36:03.435Z,15.30
2022-09-12T01:38:43.378Z,15.35
2022-09-12T01:41:53.926Z,16.23
2022-09-12T01:45:00.188Z,15.55
2022-09-12T01:48:20.413Z,15.57
2022-09-12T01:51:07.554Z,14.23
2022-09-12T01:53:46.731Z,14.45
2022-09-12T01:56:25.920Z,15.85
2022-09-12T01:59:11.968Z,15.32
2022-09-12T02:01:55.474Z,17.42
2022-09-12T02:04:34.240Z,17.65
2022-09-12T02:07:22.240Z,18.92
2022-09-12T02:10:09.515Z,17.83
2022-09-12T02:12:47.380Z,17.90
2022-09-12T02:15:20.711Z,18.17
2022-09-12T02:17:54.267Z,18.30
2022-09-12T02:20:47.000Z,15.47
2022-09-12T02:23:29.091Z,15.05
2022-09-12T02:26:08.580Z,14.77
2022-09-12T02:28:42.007Z,15.15
2022-09-12T02:31:33.463Z,18.63
2022-09-12T02:34:28.020Z,18.85
2022-09-12T02:37:06.028Z,20.83
2022-09-12T02:39:33.785Z,21.55
2022-09-12T02:42:03.161Z,23.00
2022-09-12T02:44:32.749Z,24.67
2022-09-12T02:48:00.185Z,25.90
2022-09-12T02:50:28.099Z,25.10
2022-09-12T02:52:59.695Z,26.38
2022-09-12T02:55:30.456Z,22.35
2022-09-12T02:57:57.436Z,21.63
2022-09-12T03:00:26.842Z,26.13
2022-09-12T03:03:21.962Z,24.58
2022-09-12T03:06:00.233Z,25.92
2022-09-12T03:09:14.047Z,25.02
2022-09-12T03:11:47.980Z,23.83
2022-09-12T03:14:48.652Z,24.20
2022-09-12T03:17:45.725Z,25.10
2022-09-12T03:20:50.929Z,25.25
2022-09-12T03:23:29.919Z,23.85
2022-09-12T03:26:10.383Z,24.30
2022-09-12T03:28:41.407Z,23.27
2022-09-12T03:31:16.869Z,23.48
2022-09-12T03:33:45.783Z,23.83
2022-09-12T03:36:28.386Z,22.73
2022-09-12T03:38:55.644Z,23.92
2022-09-12T03:41:22.791Z,23.48
2022-09-12T03:43:49.751Z,23.30
2022-09-12T03:46:16.752Z,25.58
2022-09-12T03:48:44.745Z,24.15
2022-09-12T03:51:11.733Z,25.88
2022-09-12T03:53:39.733Z,28.80
2022-09-12T03:56:10.025Z,27.88
2022-09-12T03:58:38.622Z,29.50
2022-09-12T04:01:15.951Z,28.25
2022-09-12T04:03:46.778Z,28.85
2022-09-12T04:06:16.676Z,28.80
2022-09-12T04:08:50.474Z,30.17
2022-09-12T04:11:20.301Z,30.90
2022-09-12T04:13:48.545Z,31.13
2022-09-12T04:16:17.540Z,28.90
2022-09-12T04:18:45.971Z,26.25
2022-09-12T04:21:18.502Z,28.23
2022-09-12T04:23:45.949Z,29.13
2022-09-12T04:26:15.359Z,28.90
2022-09-12T04:28:42.476Z,28.23
2022-09-12T04:31:17.582Z,27.65
2022-09-12T04:33:45.675Z,28.10
2022-09-12T04:36:17.689Z,28.02
2022-09-12T04:38:47.045Z,27.42
2022-09-12T04:41:23.833Z,28.02
2022-09-12T04:44:03.124Z,29.35
2022-09-12T04:46:34.210Z,28.75
2022-09-12T04:49:05.969Z,27.27
2022-09-12T04:51:37.013Z,28.60
2022-09-12T04:54:15.526Z,27.60
2022-09-12T04:56:47.189Z,27.55
2022-09-12T04:59:17.632Z,29.38
2022-09-12T05:02:10.561Z,27.00
2022-09-12T05:04:42.462Z,29.42
2022-09-12T05:07:09.526Z,28.75
2022-09-12T05:09:36.541Z,29.25
2022-09-12T05:12:05.702Z,30.35
2022-09-12T05:14:34.271Z,29.30
2022-09-12T05:17:02.797Z,31.08
2022-09-12T05:19:32.034Z,30.45
2022-09-12T05:22:00.231Z,31.20
2022-09-12T05:24:31.142Z,27.23
2022-09-12T05:26:59.491Z,29.67
2022-09-12T05:29:26.739Z,29.95
2022-09-12T05:31:54.807Z,28.73
2022-09-12T05:34:22.626Z,31.15
2022-09-12T05:36:49.657Z,29.65
2022-09-12T05:39:16.802Z,30.08
2022-09-12T05:41:44.832Z,28.55
2022-09-12T05:44:14.134Z,29.95
2022-09-12T05:46:44.234Z,30.67
2022-09-12T05:49:15.108Z,29.20
2022-09-12T05:51:45.787Z,31.15
2022-09-12T05:54:19.398Z,30.20
2022-09-12T05:56:47.421Z,30.65
2022-09-12T05:59:21.276Z,29.35
2022-09-12T06:01:49.129Z,30.60
2022-09-12T06:04:17.591Z,29.50
2022-09-12T06:06:46.143Z,30.55
2022-09-12T06:09:16.666Z,29.58
2022-09-12T06:11:45.814Z,28.77
2022-09-12T06:14:16.717Z,29.35
2022-09-12T06:16:44.027Z,29.98
2022-09-12T06:19:20.552Z,29.95
2022-09-12T06:21:49.863Z,29.85
2022-09-12T06:24:18.793Z,28.92
2022-09-12T06:26:47.684Z,29.33
2022-09-12T06:29:15.396Z,30.13
2022-09-12T06:31:43.663Z,29.70
2022-09-12T06:34:14.146Z,29.40
2022-09-12T06:36:46.078Z,30.85
2022-09-12T06:39:19.540Z,31.83
2022-09-12T06:41:48.339Z,30.37
2022-09-12T06:44:19.859Z,31.40
2022-09-12T06:46:47.532Z,29.00
2022-09-12T06:49:14.971Z,28.77
2022-09-12T06:51:43.240Z,29.25
2022-09-12T06:54:15.560Z,29.98
2022-09-12T06:56:42.689Z,28.65
2022-09-12T06:59:10.891Z,27.75
2022-09-12T07:01:38.486Z,28.88
2022-09-12T07:04:05.756Z,30.20
2022-09-12T07:06:42.313Z,28.05
2022-09-12T07:09:16.498Z,30.42
2022-09-12T07:11:45.712Z,29.70
2022-09-12T07:14:15.342Z,28.85
2022-09-12T07:16:43.131Z,30.88
2022-09-12T07:19:12.072Z,29.00
2022-09-12T07:21:40.487Z,30.10
2022-09-12T07:24:10.255Z,30.15
2022-09-12T07:26:40.338Z,31.58
2022-09-12T07:32:01.779Z,27.45
2022-09-12T07:34:28.991Z,31.00
2022-09-12T07:36:56.157Z,29.98
2022-09-12T07:39:23.215Z,29.10
2022-09-12T07:41:51.365Z,29.80
2022-09-12T07:44:18.355Z,27.35
2022-09-12T07:46:45.312Z,26.75
2022-09-12T07:49:12.410Z,24.40
2022-09-12T07:51:41.167Z,27.95
2022-09-12T07:54:09.444Z,28.58
2022-09-12T07:56:39.145Z,25.95
2022-09-12T07:59:08.401Z,25.38
2022-09-12T08:01:35.485Z,23.38
2022-09-12T08:04:04.915Z,21.77
2022-09-12T08:06:35.770Z,23.25
2022-09-12T08:09:05.544Z,25.02
2022-09-12T08:11:32.585Z,22.20
2022-09-12T08:14:01.720Z,22.98
2022-09-12T08:16:31.685Z,22.85
2022-09-12T08:19:01.846Z,23.55
2022-09-12T08:21:32.781Z,21.60
2022-09-12T08:24:06.207Z,20.98
2022-09-12T08:26:34.993Z,20.17
2022-09-12T08:29:02.432Z,21.00
2022-09-12T08:31:36.315Z,21.10
2022-09-12T08:34:07.060Z,21.08
2022-09-12T08:36:35.730Z,19.52
2022-09-12T08:39:07.008Z,21.95
2022-09-12T08:42:02.881Z,18.92
2022-09-12T08:45:15.127Z,22.55
2022-09-12T08:47:46.887Z,22.40
2022-09-12T08:50:22.249Z,20.88
2022-09-12T08:53:16.475Z,19.95
2022-09-12T08:55:53.522Z,20.35
2022-09-12T08:58:27.175Z,20.90
2022-09-12T09:01:09.254Z,19.90
2022-09-12T09:04:09.703Z,20.27
2022-09-12T09:07:06.610Z,20.02
2022-09-12T09:10:00.987Z,19.30
2022-09-12T09:12:51.982Z,18.88
2022-09-12T09:15:34.174Z,18.45
2022-09-12T09:18:28.754Z,18.83
2022-09-12T09:21:30.187Z,17.75
2022-09-12T09:24:10.309Z,17.10
2022-09-12T09:26:58.452Z,18.33
2022-09-12T09:29:44.247Z,18.33
2022-09-12T09:32:38.559Z,18.15
2022-09-12T09:35:36.691Z,14.82
2022-09-12T09:38:44.952Z,15.45
2022-09-12T09:41:39.987Z,15.75
2022-09-12T09:46:36.450Z,15.77
2022-09-12T09:49:07.087Z,13.88
2022-09-12T09:51:38.702Z,14.77
2022-09-12T09:54:21.207Z,14.00
2022-09-12T09:56:48.675Z,14.00
2022-09-12T09:59:15.962Z,13.05
2022-09-12T10:01:55.212Z,13.57
2022-09-12T10:04:26.008Z,14.57
2022-09-12T10:07:02.659Z,13.32
2022-09-12T10:09:34.599Z,13.68
2022-09-12T10:12:29.078Z,14.00
2022-09-12T10:17:34.327Z,13.70
2022-09-12T10:20:21.439Z,12.55
2022-09-12T10:22:50.608Z,13.07
2022-09-12T10:25:24.684Z,13.10
2022-09-12T10:28:00.161Z,12.30
2022-09-12T10:30:28.668Z,12.52
2022-09-12T10:33:15.163Z,11.80
2022-09-12T10:35:49.924Z,11.68
2022-09-12T10:38:30.356Z,9.98
2022-09-12T10:41:03.752Z,11.80
2022-09-12T10:43:33.862Z,13.18
2022-09-12T10:46:28.378Z,9.55
2022-09-12T10:49:38.127Z,10.52
2022-09-12T10:52:37.519Z,11.30
2022-09-12T10:55:14.636Z,9.82
2022-09-12T10:58:21.636Z,8.77
2022-09-12T11:01:03.250Z,9.00
2022-09-12T11:04:12.325Z,7.07
2022-09-12T11:07:41.992Z,8.82
2022-09-12T11:10:27.778Z,8.30
2022-09-12T11:13:20.488Z,8.93
2022-09-12T11:16:30.635Z,5.82
2022-09-12T11:19:09.743Z,5.30
2022-09-12T11:22:02.651Z,5.22
2022-09-12T11:24:43.242Z,5.13
2022-09-12T11:28:02.848Z,4.70
2022-09-12T11:30:51.843Z,4.38
2022-09-12T11:33:30.163Z,6.30
2022-09-12T11:35:57.850Z,6.07
2022-09-12T11:39:16.296Z,4.75
2022-09-12T11:42:00.401Z,4.40
2022-09-12T11:44:41.660Z,3.30
2022-09-12T11:47:13.548Z,3.42
2022-09-12T11:49:50.543Z,4.00
2022-09-12T11:52:24.459Z,4.20
2022-09-12T11:55:08.356Z,4.25
2022-09-12T11:57:54.214Z,4.70
2022-09-12T12:00:42.716Z,4.40
2022-09-12T12:03:32.878Z,3.90
2022-09-12T12:06:10.996Z,4.65
2022-09-12T12:08:43.021Z,4.57
2022-09-12T12:11:39.802Z,3.65
2022-09-12T12:14:19.454Z,3.20
2022-09-12T12:16:47.818Z,3.47
2022-09-12T12:19:14.694Z,4.00
2022-09-12T12:21:47.499Z,3.10
2022-09-12T12:24:21.573Z,3.13
2022-09-12T12:27:22.495Z,3.38
2022-09-12T12:29:49.485Z,3.88
2022-09-12T12:32:16.503Z,3.10
2022-09-12T12:34:46.501Z,3.88
2022-09-12T12:37:22.499Z,2.90
2022-09-12T12:39:50.797Z,2.45
2022-09-12T12:42:35.848Z,2.97
2022-09-12T12:45:08.716Z,2.30
2022-09-12T12:47:38.656Z,2.00
2022-09-12T12:50:19.501Z,2.17
2022-09-12T12:52:50.942Z,2.10
2022-09-12T12:55:26.962Z,1.98
2022-09-12T12:58:04.079Z,2.30
2022-09-12T13:00:40.369Z,2.40
2022-09-12T13:03:07.337Z,2.10
2022-09-12T13:05:58.210Z,2.00
2022-09-12T13:08:59.825Z,2.05
2022-09-12T13:11:45.521Z,2.67
2022-09-12T13:14:42.923Z,2.22
2022-09-12T13:17:34.766Z,2.17
2022-09-12T13:20:53.551Z,2.50
2022-09-12T13:23:39.823Z,2.03
2022-09-12T13:26:25.792Z,2.00
2022-09-12T13:29:24.930Z,1.75
2022-09-12T13:32:01.918Z,2.42
2022-09-12T13:35:04.090Z,2.40
2022-09-12T13:37:51.330Z,2.88
2022-09-12T13:41:07.794Z,2.90
2022-09-12T13:43:53.197Z,2.55
2022-09-12T13:46:40.033Z,2.72
2022-09-12T13:49:33.013Z,2.65
2022-09-12T13:52:05.696Z,2.42
2022-09-12T13:54:38.890Z,2.33
2022-09-12T13:57:41.178Z,2.60
2022-09-12T14:00:28.231Z,2.55
2022-09-12T14:03:30.413Z,2.38
2022-09-12T14:05:57.836Z,2.60
2022-09-12T14:08:25.295Z,2.90
2022-09-12T14:10:52.459Z,2.72
2022-09-12T14:13:39.364Z,2.63
2022-09-12T14:16:09.888Z,2.90
2022-09-12T14:18:39.024Z,2.30
2022-09-12T14:21:35.879Z,2.88
2022-09-12T14:24:08.504Z,2.88
2022-09-12T14:26:40.607Z,2.60
2022-09-12T14:29:08.916Z,2.80
2022-09-12T14:31:39.467Z,2.60
2022-09-12T14:34:18.954Z,2.80
2022-09-12T14:36:55.157Z,2.50
2022-09-12T14:39:39.816Z,2.95
2022-09-12T14:42:34.307Z,3.60
2022-09-12T14:45:13.926Z,3.47
2022-09-12T14:47:50.647Z,2.53
2022-09-12T14:50:24.172Z,2.95
2022-09-12T14:55:42.283Z,2.75
2022-09-12T14:58:29.783Z,5.07
2022-09-12T15:01:15.035Z,2.72
2022-09-12T15:03:46.014Z,3.42
2022-09-12T15:06:31.803Z,2.67
2022-09-12T15:09:05.955Z,2.77
2022-09-12T15:11:33.839Z,2.88
2022-09-12T15:14:15.749Z,2.90
2022-09-12T15:16:42.939Z,3.03
2022-09-12T15:19:10.463Z,2.67
2022-09-12T15:21:37.858Z,2.47
2022-09-12T15:24:05.012Z,2.55
2022-09-12T15:26:32.200Z,2.75
2022-09-12T15:28:59.358Z,3.05
2022-09-12T15:31:30.694Z,2.83
2022-09-12T15:34:01.712Z,2.97
2022-09-12T15:36:29.518Z,3.10
2022-09-12T15:38:57.668Z,2.83
2022-09-12T15:41:36.986Z,2.63
2022-09-12T15:44:07.856Z,2.70
2022-09-12T15:46:36.047Z,2.53
2022-09-12T15:49:03.375Z,2.80
2022-09-12T15:51:30.379Z,2.95
2022-09-12T15:53:57.478Z,2.90
2022-09-12T15:56:24.511Z,2.65
2022-09-12T15:59:00.024Z,2.72
2022-09-12T16:01:29.399Z,2.83
2022-09-12T16:03:56.896Z,2.72
2022-09-12T16:06:33.546Z,2.92
2022-09-12T16:09:03.655Z,2.58
2022-09-12T16:11:31.020Z,2.58
2022-09-12T16:13:58.288Z,2.42
2022-09-12T16:16:25.475Z,2.67
2022-09-12T16:18:52.579Z,2.30
2022-09-12T16:21:19.759Z,2.72
2022-09-12T16:23:47.918Z,2.63
2022-09-12T16:26:21.217Z,2.55
2022-09-12T16:28:56.189Z,2.50
2022-09-12T16:31:23.468Z,2.30
2022-09-12T16:33:51.003Z,2.70
2022-09-12T16:36:21.508Z,2.58
2022-09-12T16:38:53.059Z,2.40
2022-09-12T16:41:26.904Z,2.55
2022-09-12T16:43:55.553Z,2.50
2022-09-12T16:46:28.684Z,2.70
2022-09-12T16:48:58.685Z,2.70
2022-09-12T16:51:31.169Z,2.65
2022-09-12T16:53:58.453Z,2.22
2022-09-12T16:56:26.477Z,2.60
2022-09-12T16:58:54.517Z,2.50
2022-09-12T17:01:25.448Z,2.50
2022-09-12T17:03:55.245Z,2.60
2022-09-12T17:06:25.126Z,2.60
2022-09-12T17:08:55.985Z,2.67
2022-09-12T17:11:33.263Z,2.38
2022-09-12T17:14:06.402Z,2.58
2022-09-12T17:16:48.015Z,2.40
2022-09-12T17:21:50.343Z,2.80
2022-09-12T17:24:18.353Z,2.63
2022-09-12T17:26:46.889Z,2.45
2022-09-12T17:29:17.634Z,2.65
2022-09-12T17:31:45.603Z,2.55
2022-09-12T17:34:14.642Z,2.30
2022-09-12T17:36:44.573Z,2.85
2022-09-12T17:39:13.900Z,2.45
2022-09-12T17:41:46.184Z,2.58
2022-09-12T17:44:15.570Z,2.78
2022-09-12T17:46:43.569Z,2.78
2022-09-12T17:49:17.301Z,2.67
2022-09-12T17:51:44.790Z,2.70
2022-09-12T17:54:16.498Z,3.00
2022-09-12T17:56:49.699Z,2.80
2022-09-12T17:59:21.423Z,2.80
2022-09-12T18:02:07.780Z,3.08
2022-09-12T18:04:35.494Z,2.80
2022-09-12T18:07:02.500Z,2.80
2022-09-12T18:09:30.599Z,3.00
2022-09-12T18:11:58.313Z,2.65
2022-09-12T18:14:28.525Z,3.00
2022-09-12T18:16:57.371Z,3.00
2022-09-12T18:19:24.905Z,2.83
2022-09-12T18:21:55.947Z,2.85
2022-09-12T18:24:23.067Z,3.10
2022-09-12T18:26:50.496Z,3.15
2022-09-12T18:29:19.554Z,3.00
2022-09-12T18:31:46.789Z,3.30
2022-09-12T18:34:15.845Z,3.22
2022-09-12T18:36:47.639Z,3.20
2022-09-12T18:39:16.110Z,3.22
2022-09-12T18:41:44.584Z,3.50
2022-09-12T18:44:14.370Z,3.72
2022-09-12T18:46:42.731Z,3.78
2022-09-12T18:49:35.025Z,4.03
2022-09-12T18:52:26.694Z,3.40
2022-09-12T18:54:53.804Z,3.50
2022-09-12T18:57:20.717Z,3.42
2022-09-12T18:59:47.795Z,4.40
2022-09-12T19:02:18.831Z,5.45
2022-09-12T19:04:45.755Z,4.38
2022-09-12T19:07:12.758Z,4.93
2022-09-12T19:09:39.786Z,5.07
2022-09-12T19:12:10.290Z,6.20
2022-09-12T19:14:37.322Z,5.38
2022-09-12T19:17:07.077Z,5.43
2022-09-12T19:19:36.639Z,5.25
2022-09-12T19:22:12.978Z,5.10
2022-09-12T19:24:40.275Z,5.07
2022-09-12T19:27:07.708Z,5.38
2022-09-12T19:29:34.711Z,5.43
2022-09-12T19:32:01.971Z,5.70
2022-09-12T19:34:29.006Z,4.95
2022-09-12T19:36:59.290Z,5.07
2022-09-12T19:39:26.343Z,5.13
2022-09-12T19:41:53.393Z,5.38
2022-09-12T19:44:20.538Z,4.72
2022-09-12T19:46:47.737Z,4.75
2022-09-12T19:49:14.992Z,5.50
2022-09-12T19:51:42.083Z,5.85
2022-09-12T19:54:09.581Z,4.95
2022-09-12T19:56:36.723Z,5.20
2022-09-12T19:59:04.820Z,5.60
2022-09-12T20:01:36.784Z,5.93
2022-09-12T20:04:05.147Z,5.47
2022-09-12T20:06:32.395Z,5.55
2022-09-12T20:08:59.909Z,5.80
2022-09-12T20:11:26.914Z,5.38
2022-09-12T20:13:54.212Z,5.22
2022-09-12T20:16:29.326Z,5.43
2022-09-12T20:19:07.144Z,4.97
2022-09-12T20:21:36.206Z,5.30
2022-09-12T20:24:11.283Z,5.45
2022-09-12T20:26:41.193Z,6.53
2022-09-12T20:29:10.075Z,6.53
2022-09-12T20:31:40.413Z,6.53
2022-09-12T20:34:14.698Z,6.68
2022-09-12T20:36:42.209Z,6.30
2022-09-12T20:39:16.406Z,6.57
2022-09-12T20:41:43.674Z,6.38
2022-09-12T20:44:10.981Z,6.45
2022-09-12T20:46:38.429Z,6.70
2022-09-12T20:49:06.563Z,6.53
2022-09-12T20:51:36.438Z,6.55
2022-09-12T20:54:06.431Z,6.82
2022-09-12T20:56:36.299Z,6.45
2022-09-12T20:59:04.954Z,6.43
2022-09-12T21:01:32.596Z,6.60
2022-09-12T21:04:01.168Z,6.80
2022-09-12T21:06:28.754Z,7.57
2022-09-12T21:09:00.346Z,6.97
2022-09-12T21:11:28.558Z,8.15
2022-09-12T21:13:55.896Z,7.75
2022-09-12T21:16:23.796Z,8.40
2022-09-12T21:18:57.849Z,9.27
2022-09-12T21:21:26.350Z,9.75
2022-09-12T21:23:56.977Z,10.63
2022-09-12T21:26:24.428Z,10.10
2022-09-12T21:28:51.402Z,8.80
2022-09-12T21:31:18.569Z,8.63
2022-09-12T21:33:45.827Z,9.90
2022-09-12T21:36:12.926Z,10.05
2022-09-12T21:38:39.880Z,11.05
2022-09-12T21:41:13.935Z,10.98
2022-09-12T21:43:43.087Z,11.15
2022-09-12T21:46:11.197Z,11.57
2022-09-12T21:48:39.295Z,11.68
2022-09-12T21:51:06.955Z,10.85
2022-09-12T21:53:34.529Z,12.48
2022-09-12T21:56:07.448Z,12.27
2022-09-12T21:58:35.441Z,10.88
2022-09-12T22:01:03.387Z,11.70
2022-09-12T22:03:30.599Z,13.60
2022-09-12T22:06:04.001Z,12.32
2022-09-12T22:08:33.701Z,14.32
2022-09-12T22:11:05.095Z,15.60
2022-09-12T22:13:32.370Z,15.73
2022-09-12T22:16:02.829Z,15.65
2022-09-12T22:18:33.857Z,15.63
2022-09-12T22:21:06.437Z,14.70
2022-09-12T22:23:52.315Z,14.20
2022-09-12T22:26:20.478Z,13.35
2022-09-12T22:28:47.713Z,12.80
2022-09-12T22:31:16.030Z,13.23
2022-09-12T22:33:43.654Z,13.63
2022-09-12T22:36:12.005Z,13.65
2022-09-12T22:38:39.806Z,12.60
2022-09-12T22:41:11.257Z,12.60
2022-09-12T22:43:39.155Z,12.52
2022-09-12T22:46:09.447Z,12.48
2022-09-12T22:48:37.737Z,11.70
2022-09-12T22:51:05.579Z,11.85
2022-09-12T22:53:32.898Z,11.70
2022-09-12T22:55:59.854Z,12.05
2022-09-12T22:58:27.010Z,12.52
2022-09-12T23:00:54.273Z,12.45
2022-09-12T23:03:22.521Z,12.52
2022-09-12T23:05:49.859Z,12.90
2022-09-12T23:08:19.307Z,12.23
2022-09-12T23:10:46.765Z,12.93
2022-09-12T23:13:13.995Z,12.00
2022-09-12T23:15:41.069Z,11.60
2022-09-12T23:18:08.470Z,11.88
2022-09-12T23:20:35.512Z,11.75
2022-09-12T23:23:02.839Z,10.40
2022-09-12T23:25:32.186Z,11.30
2022-09-12T23:27:59.211Z,11.10
2022-09-12T23:30:26.250Z,11.10
2022-09-12T23:32:53.210Z,11.05
2022-09-12T23:35:20.221Z,12.20
2022-09-12T23:37:47.650Z,11.20
2022-09-12T23:40:14.875Z,10.80
2022-09-12T23:42:41.930Z,10.98
2022-09-12T23:45:10.279Z,11.45
2022-09-12T23:47:37.383Z,10.93
2022-09-12T23:50:06.047Z,11.07
2022-09-12T23:52:32.962Z,11.52
2022-09-12T23:55:00.000Z,11.68
2022-09-12T23:57:27.021Z,12.52
2022-09-12T23:59:54.056Z,12.20
